createdAt,value
2022-08-17T00:02:26.152Z,16.45
2022-08-17T00:05:33.307Z,12.98
2022-08-17T00:08:39.677Z,12.68
2022-08-17T00:12:44.420Z,10.95
2022-08-17T00:18:58.273Z,12.95
2022-08-17T00:22:30.780Z,13.27
2022-08-17T00:25:08.939Z,16.42
2022-08-17T00:28:13.328Z,21.23
2022-08-17T00:31:16.569Z,21.58
2022-08-17T00:34:19.939Z,22.33
2022-08-17T00:37:23.154Z,24.02
2022-08-17T00:40:26.699Z,22.17
2022-08-17T00:43:44.242Z,20.90
2022-08-17T00:49:51.029Z,19.52
2022-08-17T00:52:57.696Z,18.55
2022-08-17T00:56:04.757Z,16.10
2022-08-17T00:59:09.633Z,13.32
2022-08-17T01:02:15.141Z,10.30
2022-08-17T01:05:25.343Z,9.35
2022-08-17T01:08:31.157Z,10.82
2022-08-17T01:11:40.568Z,12.88
2022-08-17T01:14:44.319Z,14.52
2022-08-17T01:17:48.385Z,16.95
2022-08-17T01:20:54.447Z,16.30
2022-08-17T01:23:57.763Z,18.55
2022-08-17T01:27:01.601Z,19.63
2022-08-17T01:30:58.561Z,19.50
2022-08-17T01:33:32.125Z,20.33
2022-08-17T01:36:37.463Z,23.17
2022-08-17T01:40:08.894Z,22.60
2022-08-17T01:43:23.105Z,23.38
2022-08-17T01:46:29.339Z,23.42
2022-08-17T01:49:32.849Z,24.00
2022-08-17T01:52:36.208Z,21.92
2022-08-17T01:56:01.700Z,24.00
2022-08-17T01:59:05.039Z,22.20
2022-08-17T02:02:08.893Z,21.92
2022-08-17T02:05:12.612Z,20.65
2022-08-17T02:08:20.121Z,21.20
2022-08-17T02:11:23.463Z,20.50
2022-08-17T02:14:26.969Z,20.47
2022-08-17T02:17:30.081Z,21.77
2022-08-17T02:20:41.214Z,20.05
2022-08-17T02:23:48.770Z,20.52
2022-08-17T02:26:52.037Z,19.98
2022-08-17T02:29:55.061Z,19.63
2022-08-17T02:32:58.677Z,18.80
2022-08-17T02:36:03.023Z,18.47
2022-08-17T02:39:09.745Z,20.50
2022-08-17T02:42:14.782Z,22.88
2022-08-17T02:45:21.442Z,23.15
2022-08-17T02:48:30.579Z,23.60
2022-08-17T02:51:35.618Z,26.52
2022-08-17T02:54:39.993Z,25.75
2022-08-17T02:57:45.582Z,27.05
2022-08-17T03:00:48.803Z,25.13
2022-08-17T03:03:51.929Z,20.15
2022-08-17T03:06:54.800Z,19.02
2022-08-17T03:09:58.078Z,17.45
2022-08-17T03:13:01.721Z,16.92
2022-08-17T03:16:05.286Z,13.30
2022-08-17T03:19:08.203Z,12.02
2022-08-17T03:22:36.693Z,12.15
2022-08-17T03:25:38.919Z,12.57
2022-08-17T03:28:42.399Z,11.90
2022-08-17T03:31:47.022Z,7.95
2022-08-17T03:34:50.582Z,5.90
2022-08-17T03:38:00.463Z,5.20
2022-08-17T03:41:06.408Z,5.15
2022-08-17T03:44:09.696Z,4.88
2022-08-17T03:47:31.689Z,5.87
2022-08-17T03:50:53.682Z,5.72
2022-08-17T03:54:17.885Z,5.72
2022-08-17T03:57:21.169Z,8.07
2022-08-17T04:00:24.546Z,8.00
2022-08-17T04:03:27.527Z,6.55
2022-08-17T04:06:30.806Z,6.57
2022-08-17T04:09:34.852Z,6.70
2022-08-17T04:12:49.991Z,8.82
2022-08-17T04:15:53.981Z,12.07
2022-08-17T04:18:57.343Z,14.35
2022-08-17T04:22:00.393Z,15.65
2022-08-17T04:25:16.235Z,18.38
2022-08-17T04:28:19.880Z,22.08
2022-08-17T04:31:22.999Z,24.23
2022-08-17T04:34:26.184Z,27.02
2022-08-17T04:37:29.562Z,26.98
2022-08-17T04:40:51.462Z,26.75
2022-08-17T04:43:58.303Z,26.95
2022-08-17T04:47:01.355Z,26.55
2022-08-17T04:50:04.896Z,25.98
2022-08-17T04:53:07.909Z,22.02
2022-08-17T04:56:16.668Z,21.50
2022-08-17T04:59:22.199Z,20.52
2022-08-17T05:02:25.461Z,19.90
2022-08-17T05:05:31.859Z,21.25
2022-08-17T05:08:35.617Z,22.38
2022-08-17T05:11:39.757Z,23.80
2022-08-17T05:14:48.472Z,23.35
2022-08-17T05:17:51.462Z,22.42
2022-08-17T05:20:55.459Z,21.13
2022-08-17T05:23:58.805Z,21.92
2022-08-17T05:30:10.255Z,19.58
2022-08-17T05:33:16.878Z,18.67
2022-08-17T05:36:43.483Z,18.00
2022-08-17T05:39:43.300Z,16.50
2022-08-17T05:42:47.339Z,15.70
2022-08-17T05:46:18.454Z,16.15
2022-08-17T05:49:27.233Z,16.20
2022-08-17T05:52:39.122Z,15.00
2022-08-17T05:56:13.119Z,14.32
2022-08-17T05:59:54.449Z,14.55
2022-08-17T06:03:29.468Z,12.63
2022-08-17T06:09:53.816Z,10.32
2022-08-17T06:13:02.838Z,9.50
2022-08-17T06:16:32.959Z,8.68
2022-08-17T06:19:56.113Z,7.20
2022-08-17T06:23:07.734Z,7.65
2022-08-17T06:26:34.517Z,6.47
2022-08-17T06:29:50.880Z,6.07
2022-08-17T06:32:59.865Z,5.32
2022-08-17T06:36:30.321Z,5.90
2022-08-17T06:40:15.960Z,5.47
2022-08-17T06:46:42.270Z,5.38
2022-08-17T06:49:58.366Z,5.68
2022-08-17T06:53:25.503Z,6.45
2022-08-17T06:56:54.319Z,6.63
2022-08-17T07:00:12.769Z,6.28
2022-08-17T07:03:20.978Z,6.40
2022-08-17T07:06:29.736Z,6.15
2022-08-17T07:09:38.167Z,6.28
2022-08-17T07:12:44.946Z,7.07
2022-08-17T07:15:55.185Z,7.70
2022-08-17T07:19:00.448Z,8.38
2022-08-17T07:22:18.089Z,8.90
2022-08-17T07:25:21.827Z,8.43
2022-08-17T07:28:27.302Z,8.67
2022-08-17T07:31:33.509Z,8.35
2022-08-17T07:35:07.586Z,8.40
2022-08-17T07:38:25.165Z,8.43
2022-08-17T07:41:57.722Z,8.32
2022-08-17T07:44:58.185Z,9.10
2022-08-17T07:48:19.503Z,8.02
2022-08-17T07:51:32.290Z,8.70
2022-08-17T07:54:39.474Z,8.35
2022-08-17T07:57:42.875Z,8.02
2022-08-17T08:00:46.709Z,8.20
2022-08-17T08:03:52.651Z,7.07
2022-08-17T08:07:02.324Z,7.10
2022-08-17T08:10:12.966Z,6.65
2022-08-17T08:13:27.942Z,6.60
2022-08-17T08:16:31.201Z,6.47
2022-08-17T08:19:34.795Z,5.97
2022-08-17T08:23:07.425Z,5.67
2022-08-17T08:26:18.548Z,6.10
2022-08-17T08:29:28.479Z,6.20
2022-08-17T08:32:34.767Z,6.18
2022-08-17T08:35:53.730Z,6.35
2022-08-17T08:39:09.948Z,6.22
2022-08-17T08:42:23.741Z,6.18
2022-08-17T08:45:49.602Z,6.30
2022-08-17T08:50:01.316Z,7.07
2022-08-17T08:53:25.460Z,7.13
2022-08-17T08:57:23.339Z,8.13
2022-08-17T09:00:27.115Z,9.55
2022-08-17T09:03:52.910Z,9.85
2022-08-17T09:07:05.650Z,11.80
2022-08-17T09:10:15.289Z,12.98
2022-08-17T09:13:28.614Z,14.32
2022-08-17T09:16:42.673Z,15.77
2022-08-17T09:19:51.816Z,10.40
2022-08-17T09:23:08.349Z,7.97
2022-08-17T09:26:23.351Z,8.18
2022-08-17T09:29:35.296Z,8.35
2022-08-17T09:32:42.381Z,8.35
2022-08-17T09:35:51.761Z,8.57
2022-08-17T09:38:57.934Z,9.65
2022-08-17T09:42:12.023Z,9.55
2022-08-17T09:45:24.255Z,10.38
2022-08-17T09:48:44.890Z,10.55
2022-08-17T09:51:55.718Z,11.65
2022-08-17T09:55:01.077Z,11.48
2022-08-17T09:58:16.318Z,11.00
2022-08-17T10:01:36.755Z,11.95
2022-08-17T10:04:51.959Z,11.90
2022-08-17T10:08:01.891Z,10.90
2022-08-17T10:11:50.676Z,11.32
2022-08-17T10:15:22.619Z,21.10
2022-08-17T10:18:41.696Z,43.25
2022-08-17T10:22:15.008Z,10.07
2022-08-17T10:25:56.004Z,10.70
2022-08-17T10:29:06.941Z,10.80
2022-08-17T10:32:17.616Z,9.38
2022-08-17T10:35:41.167Z,7.90
2022-08-17T10:38:58.266Z,8.27
2022-08-17T10:42:30.102Z,8.45
2022-08-17T10:46:10.581Z,9.90
2022-08-17T10:49:30.190Z,10.15
2022-08-17T10:52:33.588Z,10.30
2022-08-17T10:55:39.468Z,14.43
2022-08-17T10:58:48.845Z,14.80
2022-08-17T11:02:19.359Z,11.07
2022-08-17T11:05:45.144Z,10.25
2022-08-17T11:09:20.407Z,9.85
2022-08-17T11:12:42.169Z,11.85
2022-08-17T11:15:58.767Z,9.00
2022-08-17T11:19:33.776Z,7.50
2022-08-17T11:23:07.727Z,7.38
2022-08-17T11:26:32.585Z,8.07
2022-08-17T11:29:52.544Z,9.00
2022-08-17T11:32:57.992Z,9.20
2022-08-17T11:36:06.122Z,7.30
2022-08-17T11:39:43.440Z,7.07
2022-08-17T11:43:08.006Z,6.45
2022-08-17T11:46:58.775Z,7.30
2022-08-17T11:50:23.482Z,6.20
2022-08-17T11:54:08.751Z,7.32
2022-08-17T11:57:26.651Z,7.40
2022-08-17T12:00:45.236Z,7.25
2022-08-17T12:03:56.908Z,9.13
2022-08-17T12:07:17.370Z,10.07
2022-08-17T12:10:31.946Z,11.27
2022-08-17T12:16:44.342Z,11.02
2022-08-17T12:19:47.406Z,11.23
2022-08-17T12:23:25.940Z,11.77
2022-08-17T12:26:33.687Z,10.98
2022-08-17T12:29:43.040Z,10.65
2022-08-17T12:32:51.129Z,11.07
2022-08-17T12:36:03.358Z,11.18
2022-08-17T12:39:14.458Z,10.35
2022-08-17T12:42:25.695Z,10.65
2022-08-17T12:45:32.789Z,10.27
2022-08-17T12:48:36.842Z,10.55
2022-08-17T12:51:47.529Z,12.18
2022-08-17T12:54:59.735Z,7.95
2022-08-17T12:58:03.682Z,12.13
2022-08-17T13:01:15.365Z,12.52
2022-08-17T13:04:19.276Z,13.20
2022-08-17T13:07:42.689Z,13.52
2022-08-17T13:11:16.288Z,14.30
2022-08-17T13:14:20.124Z,14.18
2022-08-17T13:17:36.017Z,14.47
2022-08-17T13:20:39.752Z,13.30
2022-08-17T13:23:56.399Z,12.90
2022-08-17T13:26:59.613Z,12.02
2022-08-17T13:30:08.400Z,12.02
2022-08-17T13:33:43.409Z,11.68
2022-08-17T13:36:48.853Z,11.85
2022-08-17T13:39:58.938Z,12.00
2022-08-17T13:43:03.768Z,11.25
2022-08-17T13:46:11.821Z,12.45
2022-08-17T13:49:15.260Z,11.05
2022-08-17T13:52:43.715Z,11.43
2022-08-17T13:55:54.309Z,10.32
2022-08-17T13:59:05.259Z,11.82
2022-08-17T14:02:10.105Z,10.88
2022-08-17T14:05:13.865Z,10.35
2022-08-17T14:08:19.812Z,10.18
2022-08-17T14:11:24.334Z,9.95
2022-08-17T14:17:36.539Z,9.10
2022-08-17T14:20:41.858Z,8.02
2022-08-17T14:23:49.069Z,8.23
2022-08-17T14:27:00.183Z,8.13
2022-08-17T14:30:06.390Z,8.20
2022-08-17T14:33:09.871Z,8.10
2022-08-17T14:36:13.250Z,8.47
2022-08-17T14:39:17.811Z,8.45
2022-08-17T14:42:24.627Z,9.57
2022-08-17T14:45:32.281Z,10.48
2022-08-17T14:48:38.994Z,9.75
2022-08-17T14:51:44.141Z,10.02
2022-08-17T14:54:51.433Z,9.98
2022-08-17T14:57:55.020Z,9.68
2022-08-17T15:00:58.559Z,10.50
2022-08-17T15:04:02.532Z,10.88
2022-08-17T15:10:10.313Z,10.18
2022-08-17T15:13:23.069Z,12.43
2022-08-17T15:16:27.399Z,11.32
2022-08-17T15:19:31.435Z,10.88
2022-08-17T15:22:39.926Z,11.85
2022-08-17T15:25:44.039Z,10.70
2022-08-17T15:28:48.079Z,10.88
2022-08-17T15:32:00.738Z,10.35
2022-08-17T15:35:05.880Z,10.45
2022-08-17T15:38:12.318Z,9.80
2022-08-17T15:41:18.698Z,9.82
2022-08-17T15:44:22.100Z,10.18
2022-08-17T15:47:36.976Z,9.75
2022-08-17T15:50:43.503Z,9.00
2022-08-17T15:53:50.230Z,8.75
2022-08-17T15:56:53.537Z,8.93
2022-08-17T15:59:58.417Z,8.52
2022-08-17T16:03:44.371Z,8.68
2022-08-17T16:06:27.607Z,8.20
2022-08-17T16:09:31.067Z,8.52
2022-08-17T16:12:34.721Z,9.02
2022-08-17T16:15:38.356Z,8.82
2022-08-17T16:18:42.313Z,9.00
2022-08-17T16:21:45.495Z,9.13
2022-08-17T16:24:57.153Z,8.43
2022-08-17T16:28:01.064Z,9.15
2022-08-17T16:31:07.974Z,8.95
2022-08-17T16:34:17.527Z,8.50
2022-08-17T16:37:21.125Z,8.27
2022-08-17T16:40:29.547Z,7.93
2022-08-17T16:43:35.217Z,8.93
2022-08-17T16:49:49.969Z,8.80
2022-08-17T16:53:03.220Z,8.57
2022-08-17T16:56:07.444Z,9.15
2022-08-17T16:59:30.429Z,9.23
2022-08-17T17:02:39.335Z,10.68
2022-08-17T17:05:57.685Z,9.20
2022-08-17T17:09:06.529Z,10.07
2022-08-17T17:12:18.101Z,9.73
2022-08-17T17:15:43.864Z,9.15
2022-08-17T17:18:58.578Z,8.40
2022-08-17T17:22:08.091Z,9.00
2022-08-17T17:25:11.742Z,8.82
2022-08-17T17:28:27.037Z,8.88
2022-08-17T17:31:40.323Z,9.63
2022-08-17T17:34:50.532Z,8.45
2022-08-17T17:37:57.467Z,8.70
2022-08-17T17:41:05.628Z,7.85
2022-08-17T17:44:13.380Z,7.55
2022-08-17T17:47:21.680Z,8.23
2022-08-17T17:50:34.755Z,7.75
2022-08-17T17:54:06.549Z,7.65
2022-08-17T17:57:22.541Z,7.25
2022-08-17T18:00:48.222Z,7.20
2022-08-17T18:04:30.979Z,6.97
2022-08-17T18:07:51.072Z,7.55
2022-08-17T18:11:24.237Z,7.70
2022-08-17T18:15:25.238Z,6.85
2022-08-17T18:18:40.362Z,7.57
2022-08-17T18:21:49.491Z,7.15
2022-08-17T18:24:56.626Z,7.57
2022-08-17T18:27:59.784Z,7.30
2022-08-17T18:31:08.984Z,6.63
2022-08-17T18:34:46.047Z,7.10
2022-08-17T18:37:48.234Z,6.47
2022-08-17T18:44:16.269Z,6.60
2022-08-17T18:47:22.516Z,6.25
2022-08-17T18:50:36.256Z,6.90
2022-08-17T18:53:41.417Z,6.35
2022-08-17T18:56:59.407Z,6.28
2022-08-17T19:00:13.270Z,5.85
2022-08-17T19:03:16.701Z,6.13
2022-08-17T19:06:34.145Z,6.00
2022-08-17T19:09:42.634Z,6.28
2022-08-17T19:13:00.405Z,5.07
2022-08-17T19:16:24.008Z,5.90
2022-08-17T19:19:34.107Z,6.43
2022-08-17T19:22:47.659Z,6.45
2022-08-17T19:25:54.229Z,6.40
2022-08-17T19:29:02.590Z,6.30
2022-08-17T19:32:09.087Z,7.07
2022-08-17T19:35:17.505Z,7.00
2022-08-17T19:38:31.752Z,6.60
2022-08-17T19:41:44.831Z,6.60
2022-08-17T19:45:09.392Z,7.03
2022-08-17T19:48:35.611Z,7.00
2022-08-17T19:51:47.615Z,7.28
2022-08-17T19:55:05.124Z,6.85
2022-08-17T19:58:28.027Z,6.28
2022-08-17T20:01:34.892Z,6.53
2022-08-17T20:04:45.200Z,6.28
2022-08-17T20:08:06.382Z,7.20
2022-08-17T20:11:42.972Z,6.70
2022-08-17T20:14:53.545Z,7.82
2022-08-17T20:18:02.284Z,8.20
2022-08-17T20:21:32.293Z,7.75
2022-08-17T20:24:43.993Z,7.82
2022-08-17T20:28:05.967Z,8.60
2022-08-17T20:31:39.710Z,8.05
2022-08-17T20:34:47.091Z,7.43
2022-08-17T20:38:04.254Z,6.95
2022-08-17T20:41:18.185Z,7.85
2022-08-17T20:44:38.124Z,6.85
2022-08-17T20:48:01.236Z,7.47
2022-08-17T20:51:29.661Z,7.00
2022-08-17T20:54:50.458Z,7.00
2022-08-17T20:57:53.678Z,6.78
2022-08-17T21:00:57.118Z,7.73
2022-08-17T21:04:00.318Z,7.03
2022-08-17T21:07:49.584Z,6.53
2022-08-17T21:10:55.111Z,6.70
2022-08-17T21:14:01.909Z,6.15
2022-08-17T21:17:17.817Z,6.03
2022-08-17T21:20:32.317Z,5.80
2022-08-17T21:24:14.400Z,5.90
2022-08-17T21:27:58.982Z,6.05
2022-08-17T21:31:08.710Z,6.43
2022-08-17T21:34:15.833Z,5.85
2022-08-17T21:37:23.324Z,5.80
2022-08-17T21:40:29.667Z,5.60
2022-08-17T21:43:36.820Z,5.80
2022-08-17T21:46:45.777Z,5.38
2022-08-17T21:49:51.411Z,6.28
2022-08-17T21:52:55.300Z,6.40
2022-08-17T21:55:58.572Z,6.90
2022-08-17T21:59:22.439Z,6.93
2022-08-17T22:02:32.569Z,6.88
2022-08-17T22:05:38.154Z,5.90
2022-08-17T22:08:41.818Z,6.43
2022-08-17T22:12:06.953Z,6.15
2022-08-17T22:15:17.888Z,6.05
2022-08-17T22:18:28.909Z,6.47
2022-08-17T22:21:32.171Z,6.50
2022-08-17T22:24:38.112Z,6.37
2022-08-17T22:28:08.865Z,6.43
2022-08-17T22:31:15.890Z,6.68
2022-08-17T22:34:19.009Z,6.85
2022-08-17T22:37:28.197Z,5.93
2022-08-17T22:40:34.745Z,6.95
2022-08-17T22:43:39.057Z,6.82
2022-08-17T22:47:16.993Z,7.07
2022-08-17T22:50:25.911Z,6.70
2022-08-17T22:53:47.607Z,7.00
2022-08-17T22:57:19.980Z,6.28
2022-08-17T23:00:30.672Z,6.22
2022-08-17T23:03:53.537Z,6.05
2022-08-17T23:06:56.626Z,6.10
2022-08-17T23:10:02.358Z,5.63
2022-08-17T23:13:05.363Z,4.93
2022-08-17T23:16:08.571Z,4.65
2022-08-17T23:19:14.219Z,4.88
2022-08-17T23:22:17.306Z,4.90
2022-08-17T23:25:32.185Z,4.70
2022-08-17T23:28:37.243Z,4.63
2022-08-17T23:31:40.682Z,4.88
2022-08-17T23:34:47.937Z,4.27
2022-08-17T23:37:52.399Z,5.18
2022-08-17T23:40:56.946Z,5.80
2022-08-17T23:44:00.889Z,6.00
2022-08-17T23:47:05.855Z,5.90
2022-08-17T23:50:09.337Z,6.00
2022-08-17T23:53:12.571Z,5.63
2022-08-17T23:56:16.113Z,5.63
2022-08-17T23:59:21.673Z,6.00
